Latest Weather Observations for Tindal

IDD60801

Issued at 10:41 pm CST Monday 6 February 2023 (issued every 10 minutes, with the page automatically refreshed every 10 minutes)

About weather observations | Map of weather stations | Latest weather observations for NT | Other Formats
Station Details ID: 014932 Name: TINDAL RAAF Lat: -14.52 Lon: 132.38 Height: 133.6 m
Data from the previous 72 hours. | See also: Recent months at Tindal
Date/Time
CST
Temp
°C
App
Temp
°C
Dew
Point
°C
Rel
Hum
%
Delta-T
°C
Wind Press
QNH
hPa
Press
MSL
hPa
Rain since
9am
mm
Dir  Spd
km/h
Gust
km/h
Spd
kts
Gust
kts
06/10:30pm 25.7 30.6 22.4 82 2.2 CALM 0 0 0 0 1007.0 1006.0 0.0
06/10:00pm 26.4 31.6 22.9 81 2.4 CALM 0 0 0 0 1006.8 1005.8 0.0
06/09:30pm 27.0 31.8 22.2 75 3.3 CALM 0 0 0 0 1006.6 1005.6 0.0
06/09:00pm 28.0 32.3 22.7 73 3.6 SSW 4 7 2 4 1006.7 1005.7 0.0
06/08:30pm 28.4 33.1 21.9 68 4.4 CALM 0 0 0 0 1006.6 1005.6 0.0
06/08:00pm 28.5 33.1 21.8 67 4.5 CALM 0 0 0 0 1006.2 1005.2 0.0
06/07:57pm 28.5 32.9 21.3 65 4.8 CALM 0 0 0 0 1006.2 1005.2 0.0
06/07:47pm 29.1 34.5 23.3 71 4.0 CALM 0 0 0 0 1006.1 1005.1 0.0
06/07:30pm 30.1 35.5 23.3 67 4.7 CALM 0 0 0 0 1006.0 1005.0 0.0
06/07:00pm 31.5 35.8 21.1 54 7.0 CALM 0 0 0 0 1005.6 1004.6 0.0
06/06:30pm 31.3 34.4 20.3 52 7.3 SSW 4 7 2 4 1005.3 1004.3 0.0
06/06:00pm 33.2 34.3 17.0 38 10.4 SE 7 9 4 5 1005.2 1004.2 0.0
06/05:30pm 33.7 34.5 17.4 37 10.5 SE 9 15 5 8 1005.0 1004.0 0.0
06/05:00pm 34.7 36.9 17.4 35 11.2 SE 2 7 1 4 1004.9 1003.9 0.0
06/04:30pm 34.5 35.3 16.4 34 11.6 SSW 7 17 4 9 1004.8 1003.8 0.0
06/04:00pm 34.3 35.0 16.2 34 11.5 SW 7 13 4 7 1005.0 1004.0 0.0
06/03:30pm 34.7 34.6 16.1 33 11.8 ESE 11 35 6 19 1005.1 1004.1 0.0
06/03:00pm 34.8 35.9 17.1 35 11.4 S 7 17 4 9 1005.3 1004.3 0.0
06/02:30pm 34.8 35.2 14.7 30 12.5 SSW 6 9 3 5 1005.7 1004.7 0.0
06/02:00pm 34.4 34.6 15.8 33 11.7 SE 9 13 5 7 1006.0 1005.0 0.0
06/01:30pm 34.3 34.7 16.2 34 11.5 SSW 9 13 5 7 1006.4 1005.4 0.0
06/01:00pm 34.0 34.8 17.2 36 10.8 ESE 9 11 5 6 1006.9 1005.9 0.0
06/12:30pm 33.5 35.4 17.6 38 10.3 SE 4 11 2 6 1007.3 1006.4 0.0
06/12:15pm 33.0 33.9 17.6 40 9.9 NE 9 19 5 10 1007.6 1006.7 0.0
06/12:02pm 33.1 33.7 17.7 40 9.9 NE 11 20 6 11 1007.6 1006.7 0.0
06/12:00pm 33.2 34.2 18.6 42 9.6 NE 11 20 6 11 1007.6 1006.7 0.0
06/11:30am 33.0 33.9 18.4 42 9.5 ENE 11 19 6 10 1008.1 1007.1 0.0
06/11:00am 31.9 32.5 17.8 43 9.1 ENE 11 22 6 12 1008.5 1007.5 0.0
06/10:30am 31.5 33.3 18.8 46 8.3 ESE 7 15 4 8 1008.7 1007.7 0.0
06/10:00am 30.2 32.1 18.9 50 7.4 SE 7 13 4 7 1008.8 1007.8 0.0
06/09:30am 28.8 31.0 19.7 58 6.0 SSE 7 11 4 6 1008.7 1007.7 0.0
06/09:00am 27.3 28.7 18.6 59 5.6 ESE 9 15 5 8 1008.9 1007.9 0.0
06/08:30am 25.9 26.9 17.8 61 5.1 SE 9 15 5 8 1008.7 1007.7 0.0
06/08:00am 24.5 26.0 18.0 67 4.1 SSE 7 11 4 6 1008.4 1007.4 0.0
06/07:30am 22.9 25.6 17.8 73 3.2 CALM 0 0 0 0 1008.2 1007.2 0.0
06/07:00am 21.3 23.4 18.1 82 2.0 E 4 7 2 4 1007.8 1006.9 0.0
06/06:30am 21.0 23.2 17.4 80 2.2 NNE 2 7 1 4 1007.5 1006.6 0.0
06/06:17am 21.2 22.5 17.2 78 2.5 NNE 6 7 3 4 1007.2 1006.3 0.0
06/06:00am 21.7 22.6 16.6 73 3.1 NNE 7 9 4 5 1007.1 1006.1 0.0
06/05:30am 21.1 22.1 16.9 77 2.6 SE 7 9 4 5 1006.7 1005.7 0.0
06/05:12am 21.1 21.8 17.1 78 2.5 SE 9 11 5 6 1006.4 1005.4 0.0
06/05:08am 21.1 21.8 17.1 78 2.5 SE 9 11 5 6 1006.3 1005.3 0.0
06/05:00am 21.2 22.3 17.2 78 2.5 SE 7 9 4 5 1006.2 1005.2 0.0
06/04:55am 21.3 22.0 17.1 77 2.6 SE 9 11 5 6 1006.2 1005.2 0.0
06/04:52am 21.4 22.2 17.2 77 2.6 SE 9 11 5 6 1006.2 1005.2 0.0
06/04:30am 21.3 21.9 17.7 80 2.2 SSE 11 13 6 7 1006.3 1005.3 0.0
06/04:00am 21.7 22.8 17.9 79 2.4 SSE 9 11 5 6 1006.3 1005.3 0.0
06/03:49am 21.7 22.8 18.1 80 2.3 SE 9 11 5 6 1006.3 1005.3 0.0
06/03:35am 21.7 22.8 18.1 80 2.3 SE 9 11 5 6 1006.3 1005.3 0.0
06/03:30am 21.8 23.1 18.4 81 2.1 SE 9 11 5 6 1006.3 1005.3 0.0
06/03:00am 22.0 23.5 19.0 83 1.9 SE 9 9 5 5 1006.4 1005.4 0.0
06/02:30am 22.5 24.4 18.9 80 2.3 SE 7 9 4 5 1006.5 1005.5 0.0
06/02:00am 22.9 25.1 19.3 80 2.3 SE 6 7 3 4 1006.6 1005.6 0.0
06/01:30am 23.0 25.1 19.0 78 2.6 SE 6 6 3 3 1007.0 1006.0 0.0
06/01:00am 22.9 25.1 19.5 81 2.2 SE 7 9 4 5 1007.2 1006.3 0.0
06/12:30am 23.1 25.3 19.5 80 2.3 SE 7 9 4 5 1007.3 1006.4 0.0
06/12:00am 23.4 25.6 19.5 79 2.5 SSE 7 9 4 5 1007.5 1006.6 0.0
 
Date/Time
CST
Temp
°C
App
Temp
°C
Dew
Point
°C
Rel
Hum
%
Delta-T
°C
Wind Press
QNH
hPa
Press
MSL
hPa
Rain since
9am
mm
Dir  Spd
km/h
Gust
km/h
Spd
kts
Gust
kts
05/11:30pm 23.6 25.9 19.9 80 2.4 SE 7 9 4 5 1007.6 1006.7 0.0
05/11:00pm 23.8 25.8 19.9 79 2.5 SSE 9 9 5 5 1007.5 1006.6 0.0
05/10:30pm 24.6 26.8 19.7 74 3.2 SSE 7 9 4 5 1007.4 1006.5 0.0
05/10:00pm 25.1 27.4 19.9 73 3.4 SE 7 9 4 5 1007.3 1006.4 0.0
05/09:30pm 25.9 28.0 19.3 67 4.3 SSE 7 9 4 5 1007.0 1006.0 0.0
05/09:09pm 26.3 28.9 20.4 70 3.9 SE 7 9 4 5 1006.9 1005.9 0.0
05/09:00pm 26.4 28.6 19.5 66 4.5 SE 7 9 4 5 1006.8 1005.8 0.0
05/08:30pm 27.2 28.9 19.3 62 5.1 SE 9 11 5 6 1006.6 1005.6 0.0
05/08:09pm 27.9 29.6 19.4 60 5.5 SSE 9 11 5 6 1006.5 1005.5 0.0
05/08:00pm 28.3 30.1 19.5 59 5.7 SSE 9 11 5 6 1006.4 1005.4 0.0
05/07:30pm 29.8 31.6 19.5 54 6.8 S 9 13 5 7 1006.0 1005.0 0.0
05/07:00pm 31.3 32.5 19.0 48 8.0 S 11 15 6 8 1005.6 1004.6 0.0
05/06:30pm 32.2 33.3 18.8 45 8.8 S 11 15 6 8 1005.1 1004.1 0.0
05/06:00pm 32.1 32.6 18.3 44 9.0 S 13 17 7 9 1004.8 1003.8 0.0
05/05:30pm 33.1 33.3 17.7 40 10.0 SSE 13 20 7 11 1004.5 1003.5 0.0
05/05:00pm 33.3 33.6 17.9 40 10.0 S 13 20 7 11 1004.5 1003.5 0.0
05/04:30pm 32.7 33.5 18.1 42 9.5 S 11 15 6 8 1004.5 1003.5 0.0
05/04:00pm 32.1 32.8 17.9 42 9.2 SSE 11 17 6 9 1004.6 1003.6 0.0
05/03:30pm 33.6 34.4 18.1 39 10.1 SSW 11 20 6 11 1004.8 1003.8 0.0
05/03:00pm 33.4 34.6 19.1 42 9.5 SSW 11 15 6 8 1004.8 1003.8 0.0
05/02:30pm 33.6 35.0 17.7 38 10.3 SE 7 15 4 8 1005.2 1004.2 0.0
05/02:00pm 33.6 35.5 19.7 44 9.2 S 9 15 5 8 1005.6 1004.6 0.0
05/01:30pm 32.7 34.0 19.2 44 8.9 E 11 19 6 10 1005.8 1004.8 0.0
05/01:00pm 32.6 33.8 19.8 46 8.5 S 13 22 7 12 1006.0 1005.0 0.0
05/12:30pm 32.1 32.9 19.0 45 8.6 E 13 20 7 11 1006.5 1005.5 0.0
05/12:00pm 31.5 33.0 18.8 46 8.3 SSW 9 19 5 10 1006.9 1005.9 0.0
05/11:30am 31.6 33.4 21.2 54 7.0 SSE 13 20 7 11 1007.3 1006.4 0.0
05/11:00am 30.9 33.0 20.2 53 7.1 SE 9 19 5 10 1007.5 1006.6 0.0
05/10:30am 30.4 32.5 19.4 51 7.2 ESE 7 13 4 7 1007.8 1006.9 0.0
05/10:00am 29.3 31.3 19.9 57 6.2 SE 9 13 5 7 1008.1 1007.1 0.0
05/09:30am 28.5 30.6 20.2 60 5.5 SE 9 15 5 8 1008.3 1007.3 0.0
05/09:00am 27.7 30.0 21.3 68 4.3 SE 11 13 6 7 1008.3 1007.3 0.0
05/08:30am 26.4 28.8 20.9 72 3.7 SE 9 13 5 7 1008.3 1007.3 0.0
05/08:00am 25.5 29.0 21.8 80 2.5 SSE 6 11 3 6 1008.2 1007.2 0.0
05/07:30am 24.6 29.8 22.8 90 1.2 CALM 0 0 0 0 1008.1 1007.1 0.0
05/07:00am 23.2 28.1 22.4 95 0.5 CALM 0 0 0 0 1007.8 1006.9 0.0
05/06:30am 22.7 27.4 21.9 95 0.5 CALM 0 0 0 0 1007.4 1006.5 0.0
05/06:00am 22.7 26.1 22.0 96 0.5 SSE 7 7 4 4 1007.2 1006.3 0.0
05/05:30am 22.7 27.4 22.0 96 0.5 CALM 0 0 0 0 1006.9 1005.9 0.0
05/05:00am 22.8 27.5 22.0 95 0.5 CALM 0 0 0 0 1006.8 1005.8 0.0
05/04:30am 22.8 27.5 22.0 95 0.5 CALM 0 0 0 0 1006.7 1005.7 0.0
05/04:00am 23.0 27.7 22.0 94 0.7 CALM 0 0 0 0 1006.5 1005.5 0.0
05/03:30am 23.0 27.7 22.0 94 0.7 CALM 0 0 0 0 1006.5 1005.5 0.0
05/03:00am 23.1 27.9 22.1 94 0.7 CALM 0 0 0 0 1006.6 1005.6 0.0
05/02:30am 23.1 26.2 22.1 94 0.7 SSE 9 15 5 8 1006.5 1005.5 0.0
05/02:00am 23.4 26.7 21.5 89 1.3 W 6 7 3 4 1006.4 1005.4 0.0
05/01:30am 23.7 27.1 22.0 90 1.1 W 7 11 4 6 1006.5 1005.5 0.0
05/01:00am 24.0 28.9 22.3 90 1.1 CALM 0 0 0 0 1006.7 1005.7 0.0
05/12:30am 24.3 29.0 22.6 90 1.1 W 2 7 1 4 1007.1 1006.1 0.0
05/12:00am 24.6 28.3 22.5 88 1.4 W 7 9 4 5 1007.5 1006.6 0.0
 
Date/Time
CST
Temp
°C
App
Temp
°C
Dew
Point
°C
Rel
Hum
%
Delta-T
°C
Wind Press
QNH
hPa
Press
MSL
hPa
Rain since
9am
mm
Dir  Spd
km/h
Gust
km/h
Spd
kts
Gust
kts
04/11:30pm 25.0 28.8 22.7 87 1.6 WSW 7 11 4 6 1007.6 1006.7 0.0
04/11:00pm 25.4 29.3 22.9 86 1.7 WNW 7 11 4 6 1007.7 1006.8 0.0
04/10:30pm 25.6 29.7 22.9 85 1.8 W 6 7 3 4 1007.5 1006.6 0.0
04/10:00pm 25.7 29.5 22.8 84 2.0 W 7 11 4 6 1007.4 1006.5 0.0
04/09:30pm 25.9 29.7 22.8 83 2.1 W 7 11 4 6 1007.1 1006.1 0.0
04/09:00pm 26.3 30.2 23.0 82 2.3 NW 7 11 4 6 1006.6 1005.6 0.0
04/08:30pm 26.4 30.1 22.5 79 2.6 WNW 7 9 4 5 1006.4 1005.4 0.0
04/08:00pm 26.8 29.8 22.0 75 3.2 NNW 9 13 5 7 1006.0 1005.0 0.0
04/07:30pm 27.5 30.2 22.2 73 3.6 NW 11 15 6 8 1005.6 1004.6 0.0
04/07:00pm 28.2 32.8 21.7 68 4.4 CALM 0 0 0 0 1004.9 1003.9 0.0
04/06:30pm 28.9 33.3 21.4 64 5.1 CALM 0 0 0 0 1004.5 1003.5 0.0
04/06:00pm 29.0 33.3 21.2 62 5.2 CALM 0 6 0 3 1003.9 1002.9 0.0
04/05:30pm 29.2 31.6 20.9 61 5.6 NE 9 13 5 7 1003.4 1002.4 0.0
04/05:00pm 29.9 32.2 20.7 57 6.1 NNE 9 13 5 7 1003.4 1002.4 0.0
04/04:30pm 29.7 31.2 19.7 55 6.6 NNE 11 15 6 8 1003.6 1002.6 0.0
04/04:00pm 29.7 31.3 20.0 56 6.4 N 11 17 6 9 1003.7 1002.7 0.0
04/03:30pm 29.9 31.5 19.9 55 6.6 N 11 17 6 9 1004.1 1003.1 0.0
04/03:00pm 29.0 31.1 21.7 64 4.9 NNE 13 20 7 11 1004.4 1003.4 0.0
04/02:30pm 27.6 27.7 20.4 65 4.8 NNE 20 28 11 15 1004.8 1003.8 0.0
04/02:00pm 28.5 27.8 21.0 64 5.0 NNE 26 35 14 19 1005.3 1004.3 0.0
04/01:30pm 28.5 27.6 21.5 66 4.7 NNE 28 35 15 19 1005.4 1004.4 0.0
04/01:23pm 28.5 28.4 21.5 66 4.7 NNE 24 35 13 19 1005.6 1004.6 0.0
04/01:00pm 29.4 33.8 23.4 70 4.1 NW 6 11 3 6 1005.6 1004.6 0.0
04/12:30pm 28.8 32.6 22.8 70 4.1 WSW 7 13 4 7 1005.7 1004.7 0.0
04/12:00pm 29.6 33.2 23.1 68 4.5 SSW 9 13 5 7 1006.2 1005.2 0.0
04/11:30am 29.0 32.6 23.7 73 3.7 S 11 19 6 10 1005.9 1004.9 0.0
04/11:00am 26.8 29.7 22.4 77 3.0 SW 11 17 6 9 1006.4 1005.4 0.0
04/10:30am 25.9 29.2 22.6 82 2.2 N 9 15 5 8 1007.1 1006.1 0.0
04/10:00am 27.0 30.7 23.9 83 2.1 N 11 19 6 10 1007.0 1006.0 0.0
04/09:30am 27.9 32.0 23.9 79 2.8 S 9 11 5 6 1007.0 1006.0 0.0
04/09:00am 28.7 33.4 24.0 76 3.3 SW 6 9 3 5 1007.0 1006.0 0.0
04/08:59am 28.7 33.8 24.0 76 3.3 SW 4 9 2 5 1007.0 1006.0 0.0
04/08:45am 27.9 32.4 23.7 78 2.9 W 6 9 3 5 1007.0 1006.0 0.0
04/08:30am 28.0 32.9 23.6 77 3.0 NNW 4 9 2 5 1006.8 1005.8 0.0
04/08:05am 27.0 31.7 23.3 80 2.5 NNW 4 7 2 4 1006.8 1005.8 0.0
04/08:00am 26.8 31.0 23.1 80 2.5 NNW 6 7 3 4 1006.8 1005.8 0.0
04/07:30am 26.6 31.9 23.1 81 2.4 CALM 0 0 0 0 1006.5 1005.5 0.0
04/07:00am 26.3 30.4 23.2 83 2.1 NNW 7 11 4 6 1006.2 1005.2 0.0
04/06:30am 26.2 31.5 23.1 83 2.1 CALM 0 0 0 0 1005.9 1004.9 0.0
04/06:00am 26.1 31.4 23.0 83 2.1 CALM 0 0 0 0 1005.5 1004.5 0.0
04/05:30am 25.6 31.0 23.3 87 1.6 CALM 0 0 0 0 1005.3 1004.3 0.0
04/05:00am 25.4 30.8 23.3 88 1.4 CALM 0 0 0 0 1004.9 1003.9 0.0
04/04:46am 25.4 31.0 23.5 89 1.3 CALM 0 0 0 0 1004.7 1003.7 0.0
04/04:30am 25.4 31.0 23.5 89 1.3 CALM 0 0 0 0 1004.6 1003.6 0.0
04/04:00am 25.2 30.6 23.3 89 1.3 CALM 0 0 0 0 1004.5 1003.5 0.0
04/03:59am 25.1 30.5 23.2 89 1.3 CALM 0 0 0 0 1004.5 1003.5 0.0
04/03:30am 25.3 29.7 22.8 86 1.7 ENE 4 7 2 4 1004.4 1003.4 0.0
04/03:11am 24.8 28.2 22.7 88 1.4 ESE 9 13 5 7 1004.5 1003.5 0.0
04/03:05am 24.9 27.6 22.8 88 1.4 SE 13 17 7 9 1004.6 1003.6 0.0
04/03:00am 24.9 27.9 22.6 87 1.6 SE 11 17 6 9 1004.6 1003.6 0.0
04/02:39am 25.5 29.3 22.4 83 2.1 NNW 6 7 3 4 1004.3 1003.3 0.0
04/02:31am 25.6 29.3 22.5 83 2.1 NNW 7 9 4 5 1004.3 1003.3 0.0
04/02:30am 25.6 29.2 22.3 82 2.2 NNW 7 9 4 5 1004.3 1003.3 0.0
04/02:00am 25.9 29.7 22.4 81 2.4 NNW 6 9 3 5 1004.4 1003.4 0.0
04/01:30am 25.8 29.1 22.5 82 2.2 NNW 9 11 5 6 1004.7 1003.7 0.0
04/01:00am 26.0 29.3 22.5 81 2.4 NNW 9 11 5 6 1004.9 1003.9 0.0
04/12:30am 26.1 29.4 22.6 81 2.4 NNW 9 11 5 6 1005.2 1004.2 0.0
04/12:00am 26.8 30.5 22.2 76 3.1 N 6 11 3 6 1005.2 1004.2 0.0
 
Date/Time
CST
Temp
°C
App
Temp
°C
Dew
Point
°C
Rel
Hum
%
Delta-T
°C
Wind Press
QNH
hPa
Press
MSL
hPa
Rain since
9am
mm
Dir  Spd
km/h
Gust
km/h
Spd
kts
Gust
kts
03/11:34pm 26.5 30.6 22.3 78 2.8 N 4 9 2 5 1005.3 1004.3 0.0
03/11:30pm 26.5 30.2 22.3 78 2.8 NNE 6 9 3 5 1005.4 1004.4 0.0
03/11:10pm 26.7 30.0 21.9 75 3.2 N 7 9 4 5 1005.3 1004.3 0.0
03/11:00pm 26.8 30.2 22.0 75 3.2 N 7 9 4 5 1005.3 1004.3 0.0

Other formats

Comma delimited format used in spreadsheet applications
http://www.bom.gov.au/fwo/IDD60801/IDD60801.94131.axf

JavaScript Object Notation format (JSON) in row-major order
http://www.bom.gov.au/fwo/IDD60801/IDD60801.94131.json

Data quality

Most of these data are generated automatically and are frequently updated. Quality checks on data are not normally performed. It is possible for incorrect values to appear. Refer to information at About Latest Weather Observations and please check the disclaimer before using these data.